Weather at Wigtown Airfield

Public forecast

Using degrees Celsius for public forecast. Weather courtesy of forecast.io.

Closest aviation weather report (METAR) to Wigtown Airfield

Closest report is Glasgow Prestwick Airport, 39.3 nm (72.8 km) N.

2024/05/26 07:50 (retrieved 38 minutes ago)

EGPK 260750Z 06008KT 9999 FEW030 SCT047 13/12 Q1009

Closest aviation forecast (TAF) to Wigtown Airfield

Closest forecast is Glasgow Prestwick Airport, 39.3 nm (72.8 km) N.

2024/05/26 06:00 (retrieved 2 hours ago)

TAF EGPK 260455Z 2606/2706 06010KT 9999 SCT025 TEMPO 2606/2612 8000 -RA PROB30 TEMPO 2606/2612 4000 RA BKN014 BECMG 2609/2612 25004KT TEMPO 2612/2706 6000 SHRA BKN010 PROB30 TEMPO 2612/2620 3000 +TSRA BKN008 PROB30 TEMPO 2703/2706 BKN006